Mesquite, Nevada
Current Conditions -  °F | °C
As of 6:15 AM on Sunday 23 Nov 2014 (Local Time) from KSGU Reporting Station
Clear Clear  
Wind Chill: 41°   Ceiling: Unl
Heat Index: 45°   Visibility: 10mi
Dew Point: 16°   Wind: 6mph
Humidity: 31%   Direction: 310°NW
Pressure: 30.18"   Gusts: NA
Location:  36.8°N, 114.11°W
Report Text: KSGU 231415Z AUTO 31005KT 10SM CLR 07/M09 A3018 RMK AO1
Loading
Personal Weather Stations






























Interactive Weather Map New forecast layout! Learn more

10-Day Weather Forecast

Advertisements
Track Severe Weather on mobile